createdAt,value
2023-04-16T00:01:01.161Z,102340.50
2023-04-16T00:03:28.231Z,102332.59
2023-04-16T00:05:56.531Z,102342.41
2023-04-16T00:08:26.205Z,102344.31
2023-04-16T00:10:55.791Z,102350.25
2023-04-16T00:13:22.739Z,102348.63
2023-04-16T00:15:49.369Z,102344.81
2023-04-16T00:18:15.925Z,102350.03
2023-04-16T00:20:42.525Z,102348.88
2023-04-16T00:23:09.119Z,102352.41
2023-04-16T00:25:35.900Z,102348.03
2023-04-16T00:28:02.866Z,102353.25
2023-04-16T00:30:29.645Z,102330.63
2023-04-16T00:32:56.237Z,102336.91
2023-04-16T00:35:22.866Z,102348.03
2023-04-16T00:37:49.447Z,102349.34
2023-04-16T00:40:16.209Z,102335.97
2023-04-16T00:42:42.698Z,102333.84
2023-04-16T00:45:10.266Z,102346.38
2023-04-16T00:47:36.909Z,102339.53
2023-04-16T00:50:04.578Z,102335.97
2023-04-16T00:52:33.149Z,102344.13
2023-04-16T00:54:59.904Z,102347.72
2023-04-16T00:57:27.055Z,102342.75
2023-04-16T00:59:54.503Z,102344.88
2023-04-16T01:02:21.228Z,102346.31
2023-04-16T01:04:47.955Z,102344.41
2023-04-16T01:07:14.442Z,102350.09
2023-04-16T01:09:41.008Z,102347.59
2023-04-16T01:12:07.818Z,102357.41
2023-04-16T01:14:36.404Z,102355.78
2023-04-16T01:17:03.838Z,102360.16
2023-04-16T01:19:36.367Z,102357.41
2023-04-16T01:22:03.927Z,102354.13
2023-04-16T01:24:31.471Z,102344.06
2023-04-16T01:26:59.495Z,102354.97
2023-04-16T01:29:26.889Z,102352.50
2023-04-16T01:31:54.417Z,102355.44
2023-04-16T01:34:21.009Z,102358.16
2023-04-16T01:36:47.461Z,102352.97
2023-04-16T01:39:16.326Z,102356.53
2023-04-16T01:41:43.732Z,102357.34
2023-04-16T01:44:10.459Z,102351.91
2023-04-16T01:46:38.188Z,102355.69
2023-04-16T01:49:05.928Z,102354.28
2023-04-16T01:51:32.701Z,102347.75
2023-04-16T01:53:59.444Z,102357.59
2023-04-16T01:56:26.419Z,102350.75
2023-04-16T01:58:53.411Z,102358.09
2023-04-16T02:01:20.305Z,102352.88
2023-04-16T02:03:47.631Z,102356.19
2023-04-16T02:06:14.950Z,102357.50
2023-04-16T02:08:41.807Z,102355.84
2023-04-16T02:11:08.349Z,102365.09
2023-04-16T02:13:35.012Z,102364.00
2023-04-16T02:16:02.498Z,102368.91
2023-04-16T02:18:29.137Z,102383.06
2023-04-16T02:20:58.658Z,102367.00
2023-04-16T02:23:25.384Z,102367.47
2023-04-16T02:25:51.843Z,102375.16
2023-04-16T02:28:18.373Z,102385.22
2023-04-16T02:30:44.908Z,102379.19
2023-04-16T02:33:13.085Z,102369.38
2023-04-16T02:35:40.076Z,102368.28
2023-04-16T02:38:07.449Z,102374.81
2023-04-16T02:40:34.267Z,102367.47
2023-04-16T02:43:00.950Z,102367.69
2023-04-16T02:45:28.054Z,102374.00
2023-04-16T02:47:54.569Z,102371.50
2023-04-16T02:50:21.140Z,102368.78
2023-04-16T02:52:47.853Z,102376.94
2023-04-16T02:55:14.421Z,102375.31
2023-04-16T02:57:42.375Z,102373.41
2023-04-16T03:00:09.882Z,102372.59
2023-04-16T03:02:36.797Z,102367.38
2023-04-16T03:05:03.897Z,102374.47
2023-04-16T03:07:30.469Z,102367.38
2023-04-16T03:09:58.122Z,102371.97
2023-04-16T03:12:24.705Z,102372.22
2023-04-16T03:14:52.678Z,102374.94
2023-04-16T03:17:19.350Z,102377.66
2023-04-16T03:19:46.118Z,102376.59
2023-04-16T03:22:12.748Z,102373.28
2023-04-16T03:24:39.187Z,102379.78
2023-04-16T03:27:05.738Z,102377.91
2023-04-16T03:29:32.221Z,102385.22
2023-04-16T03:31:58.757Z,102380.03
2023-04-16T03:34:25.426Z,102379.78
2023-04-16T03:36:51.973Z,102377.56
2023-04-16T03:39:18.448Z,102381.13
2023-04-16T03:41:44.919Z,102381.34
2023-04-16T03:44:11.384Z,102378.38
2023-04-16T03:46:38.000Z,102384.06
2023-04-16T03:49:04.697Z,102376.72
2023-04-16T03:51:31.291Z,102378.88
2023-04-16T03:53:57.745Z,102376.16
2023-04-16T03:56:24.334Z,102376.72
2023-04-16T03:58:51.054Z,102385.13
2023-04-16T04:01:17.586Z,102379.09
2023-04-16T04:03:44.403Z,102381.59
2023-04-16T04:06:11.099Z,102379.34
2023-04-16T04:08:37.626Z,102380.16
2023-04-16T04:11:04.208Z,102386.44
2023-04-16T04:13:30.704Z,102384.53
2023-04-16T04:15:57.227Z,102376.38
2023-04-16T04:18:23.798Z,102384.88
2023-04-16T04:20:50.335Z,102381.69
2023-04-16T04:23:16.850Z,102374.94
2023-04-16T04:25:44.085Z,102378.25
2023-04-16T04:28:10.647Z,102377.19
2023-04-16T04:30:37.151Z,102381.56
2023-04-16T04:33:04.011Z,102383.81
2023-04-16T04:35:30.784Z,102375.38
2023-04-16T04:37:57.247Z,102375.38
2023-04-16T04:40:23.960Z,102390.41
2023-04-16T04:42:50.448Z,102386.88
2023-04-16T04:45:17.149Z,102388.78
2023-04-16T04:47:43.677Z,102392.31
2023-04-16T04:50:10.796Z,102389.59
2023-04-16T04:52:37.284Z,102391.25
2023-04-16T04:55:03.935Z,102393.13
2023-04-16T04:57:30.426Z,102396.69
2023-04-16T04:59:56.898Z,102397.75
2023-04-16T05:02:23.485Z,102405.09
2023-04-16T05:04:50.191Z,102404.03
2023-04-16T05:07:16.931Z,102400.47
2023-04-16T05:09:43.434Z,102406.16
2023-04-16T05:12:10.001Z,102408.66
2023-04-16T05:14:36.519Z,102405.66
2023-04-16T05:17:03.129Z,102406.75
2023-04-16T05:19:29.838Z,102409.47
2023-04-16T05:21:56.398Z,102413.03
2023-04-16T05:24:23.278Z,102406.50
2023-04-16T05:26:49.845Z,102413.63
2023-04-16T05:29:16.327Z,102420.09
2023-04-16T05:31:42.889Z,102422.00
2023-04-16T05:34:09.412Z,102420.09
2023-04-16T05:36:35.941Z,102422.84
2023-04-16T05:39:02.477Z,102426.38
2023-04-16T05:41:29.363Z,102432.91
2023-04-16T05:43:56.315Z,102428.28
2023-04-16T05:46:22.850Z,102424.72
2023-04-16T05:48:49.402Z,102435.63
2023-04-16T05:51:15.975Z,102426.38
2023-04-16T05:53:42.789Z,102433.72
2023-04-16T05:56:09.578Z,102433.72
2023-04-16T05:58:36.122Z,102434.53
2023-04-16T06:01:03.428Z,102433.72
2023-04-16T06:03:30.177Z,102429.94
2023-04-16T06:05:56.906Z,102429.09
2023-04-16T06:08:23.644Z,102425.56
2023-04-16T06:10:50.313Z,102435.41
2023-04-16T06:13:16.922Z,102435.16
2023-04-16T06:15:43.686Z,102441.41
2023-04-16T06:18:10.305Z,102430.53
2023-04-16T06:20:36.887Z,102438.69
2023-04-16T06:23:03.463Z,102446.84
2023-04-16T06:25:30.017Z,102440.34
2023-04-16T06:27:56.535Z,102452.06
2023-04-16T06:30:23.992Z,102447.69
2023-04-16T06:32:50.640Z,102445.78
2023-04-16T06:35:20.004Z,102444.97
2023-04-16T06:37:46.955Z,102447.69
2023-04-16T06:40:13.517Z,102448.50
2023-04-16T06:42:39.995Z,102457.53
2023-04-16T06:45:07.336Z,102451.22
2023-04-16T06:47:33.891Z,102456.94
2023-04-16T06:50:00.414Z,102452.31
2023-04-16T06:52:27.055Z,102468.63
2023-04-16T06:54:53.586Z,102461.28
2023-04-16T06:57:20.087Z,102459.38
2023-04-16T06:59:46.667Z,102460.47
2023-04-16T07:02:13.418Z,102459.38
2023-04-16T07:04:40.220Z,102453.94
2023-04-16T07:07:06.700Z,102460.47
2023-04-16T07:09:33.314Z,102462.13
2023-04-16T07:11:59.896Z,102456.66
2023-04-16T07:14:26.440Z,102461.06
2023-04-16T07:16:52.984Z,102469.22
2023-04-16T07:19:19.576Z,102460.25
2023-04-16T07:21:46.381Z,102475.50
2023-04-16T07:24:13.156Z,102465.69
2023-04-16T07:26:39.960Z,102474.69
2023-04-16T07:29:06.546Z,102474.69
2023-04-16T07:31:33.245Z,102472.78
2023-04-16T07:33:59.861Z,102472.78
2023-04-16T07:36:28.344Z,102476.31
2023-04-16T07:38:54.896Z,102476.31
2023-04-16T07:41:21.690Z,102482.84
2023-04-16T07:43:48.266Z,102488.88
2023-04-16T07:46:14.888Z,102482.84
2023-04-16T07:48:41.449Z,102487.47
2023-04-16T07:51:08.194Z,102487.22
2023-04-16T07:53:34.732Z,102489.94
2023-04-16T07:56:01.354Z,102498.72
2023-04-16T07:58:27.832Z,102501.66
2023-04-16T08:00:54.503Z,102496.22
2023-04-16T08:03:21.256Z,102503.31
2023-04-16T08:05:47.880Z,102499.75
2023-04-16T08:08:14.454Z,102500.84
2023-04-16T08:10:41.119Z,102506.88
2023-04-16T08:13:07.681Z,102510.41
2023-04-16T08:15:34.181Z,102511.47
2023-04-16T08:18:00.862Z,102512.31
2023-04-16T08:20:27.643Z,102514.19
2023-04-16T08:22:54.927Z,102531.59
2023-04-16T08:25:23.666Z,102530.53
2023-04-16T08:27:51.021Z,102528.06
2023-04-16T08:30:17.580Z,102525.34
2023-04-16T08:32:44.239Z,102526.16
2023-04-16T08:35:10.871Z,102521.53
2023-04-16T08:37:37.348Z,102530.53
2023-04-16T08:40:04.061Z,102535.16
2023-04-16T08:42:36.937Z,102536.22
2023-04-16T08:45:25.867Z,102534.09
2023-04-16T08:47:53.033Z,102532.44
2023-04-16T08:50:24.268Z,102535.97
2023-04-16T08:53:03.491Z,102539.78
2023-04-16T08:55:51.838Z,102540.59
2023-04-16T08:58:22.794Z,102545.22
2023-04-16T09:00:50.500Z,102547.13
2023-04-16T09:03:17.381Z,102554.22
2023-04-16T09:05:44.051Z,102551.75
2023-04-16T09:08:10.624Z,102552.81
2023-04-16T09:10:37.171Z,102551.97
2023-04-16T09:13:03.693Z,102558.00
2023-04-16T09:15:30.676Z,102550.91
2023-04-16T09:17:57.678Z,102564.53
2023-04-16T09:20:24.681Z,102558.84
2023-04-16T09:22:51.631Z,102576.25
2023-04-16T09:25:21.020Z,102566.19
2023-04-16T09:27:49.981Z,102561.56
2023-04-16T09:30:21.891Z,102567.00
2023-04-16T09:32:49.268Z,102568.91
2023-04-16T09:35:18.597Z,102567.00
2023-04-16T09:37:55.868Z,102572.22
2023-04-16T09:40:30.524Z,102579.31
2023-04-16T09:42:58.377Z,102575.78
2023-04-16T09:45:25.199Z,102577.69
2023-04-16T09:47:51.841Z,102582.88
2023-04-16T09:50:20.335Z,102582.97
2023-04-16T09:52:51.337Z,102594.19
2023-04-16T09:55:23.825Z,102582.84
2023-04-16T09:57:58.687Z,102582.00
2023-04-16T10:00:25.542Z,102589.34
2023-04-16T10:03:03.976Z,102592.91
2023-04-16T10:05:30.751Z,102587.47
2023-04-16T10:08:01.309Z,102592.09
2023-04-16T10:10:27.847Z,102574.91
2023-04-16T10:12:55.728Z,102594.81
2023-04-16T10:15:22.698Z,102602.16
2023-04-16T10:17:50.192Z,102604.88
2023-04-16T10:20:18.491Z,102601.31
2023-04-16T10:22:45.242Z,102607.59
2023-04-16T10:25:12.007Z,102604.88
2023-04-16T10:27:39.327Z,102605.69
2023-04-16T10:30:07.588Z,102605.69
2023-04-16T10:32:35.879Z,102608.66
2023-04-16T10:35:02.463Z,102612.19
2023-04-16T10:37:32.743Z,102598.56
2023-04-16T10:40:00.057Z,102604.88
2023-04-16T10:42:27.490Z,102601.31
2023-04-16T10:44:54.227Z,102607.59
2023-04-16T10:47:24.748Z,102612.19
2023-04-16T10:49:51.973Z,102614.91
2023-04-16T10:52:18.559Z,102613.03
2023-04-16T10:54:47.820Z,102610.31
2023-04-16T10:57:19.768Z,102612.78
2023-04-16T10:59:49.266Z,102606.75
2023-04-16T11:02:19.204Z,102608.66
2023-04-16T11:04:48.237Z,102611.38
2023-04-16T11:07:16.969Z,102610.31
2023-04-16T11:10:13.123Z,102603.19
2023-04-16T11:12:46.831Z,102609.47
2023-04-16T11:15:15.864Z,102599.66
2023-04-16T11:17:48.123Z,102604.03
2023-04-16T11:20:21.752Z,102602.16
2023-04-16T11:22:58.337Z,102606.75
2023-04-16T11:25:25.875Z,102603.19
2023-04-16T11:27:52.991Z,102595.03
2023-04-16T11:30:29.398Z,102604.88
2023-04-16T11:32:56.162Z,102603.19
2023-04-16T11:35:22.935Z,102602.97
2023-04-16T11:37:49.536Z,102601.31
2023-04-16T11:40:16.097Z,102597.75
2023-04-16T11:42:43.320Z,102595.03
2023-04-16T11:45:11.832Z,102611.16
2023-04-16T11:47:55.436Z,102599.44
2023-04-16T11:50:23.301Z,102606.53
2023-04-16T11:52:51.483Z,102606.53
2023-04-16T11:55:18.390Z,102606.53
2023-04-16T11:57:45.967Z,102604.03
2023-04-16T12:00:14.157Z,102609.47
2023-04-16T12:02:51.754Z,102609.25
2023-04-16T12:05:37.750Z,102613.88
2023-04-16T12:08:07.223Z,102614.91
2023-04-16T12:10:36.230Z,102612.19
2023-04-16T12:13:16.896Z,102611.16
2023-04-16T12:15:55.209Z,102604.88
2023-04-16T12:18:24.538Z,102614.69
2023-04-16T12:20:51.440Z,102611.16
2023-04-16T12:23:32.857Z,102619.31
2023-04-16T12:26:10.427Z,102615.78
2023-04-16T12:28:41.717Z,102618.72
2023-04-16T12:31:08.505Z,102616.59
2023-04-16T12:33:35.129Z,102616.59
2023-04-16T12:36:02.176Z,102620.97
2023-04-16T12:38:29.438Z,102619.31
2023-04-16T12:40:57.754Z,102614.69
2023-04-16T12:43:25.158Z,102610.31
2023-04-16T12:45:51.837Z,102616.59
2023-04-16T12:48:18.425Z,102613.88
2023-04-16T12:50:44.988Z,102617.16
2023-04-16T12:53:11.879Z,102621.78
2023-04-16T12:55:38.615Z,102621.78
2023-04-16T12:58:05.144Z,102626.41
2023-04-16T13:00:31.641Z,102618.25
2023-04-16T13:02:58.252Z,102623.44
2023-04-16T13:05:24.997Z,102623.69
2023-04-16T13:07:51.520Z,102625.59
2023-04-16T13:10:18.136Z,102624.75
2023-04-16T13:12:46.506Z,102628.06
2023-04-16T13:15:13.067Z,102623.44
2023-04-16T13:17:39.633Z,102623.44
2023-04-16T13:20:06.590Z,102623.44
2023-04-16T13:22:33.611Z,102621.56
2023-04-16T13:25:00.075Z,102626.16
2023-04-16T13:27:26.731Z,102619.88
2023-04-16T13:29:53.351Z,102633.50
2023-04-16T13:32:19.947Z,102623.22
2023-04-16T13:34:47.107Z,102617.78
2023-04-16T13:37:13.975Z,102624.03
2023-04-16T13:39:40.661Z,102618.84
2023-04-16T13:42:07.185Z,102623.22
2023-04-16T13:44:33.914Z,102618.59
2023-04-16T13:47:00.691Z,102618.84
2023-04-16T13:49:27.384Z,102617.63
2023-04-16T13:51:54.004Z,102620.38
2023-04-16T13:54:20.587Z,102618.94
2023-04-16T13:56:47.173Z,102620.84
2023-04-16T13:59:15.700Z,102611.84
2023-04-16T14:01:42.492Z,102622.97
2023-04-16T14:04:09.145Z,102623.22
2023-04-16T14:06:35.923Z,102622.97
2023-04-16T14:09:02.466Z,102630.31
2023-04-16T14:11:29.067Z,102620.72
2023-04-16T14:13:55.845Z,102619.66
2023-04-16T14:16:22.500Z,102622.63
2023-04-16T14:18:49.066Z,102623.44
2023-04-16T14:21:15.667Z,102619.88
2023-04-16T14:23:42.191Z,102621.78
2023-04-16T14:26:08.852Z,102622.88
2023-04-16T14:28:35.938Z,102622.88
2023-04-16T14:31:02.545Z,102616.00
2023-04-16T14:33:29.284Z,102617.41
2023-04-16T14:35:56.074Z,102608.41
2023-04-16T14:38:22.690Z,102612.19
2023-04-16T14:40:49.347Z,102610.53
2023-04-16T14:43:16.022Z,102614.91
2023-04-16T14:45:42.593Z,102610.53
2023-04-16T14:48:09.295Z,102612.44
2023-04-16T14:50:38.097Z,102620.88
2023-04-16T14:53:05.600Z,102617.31
2023-04-16T14:55:32.646Z,102607.25
2023-04-16T14:58:00.024Z,102621.69
2023-04-16T15:00:27.505Z,102611.88
2023-04-16T15:02:57.702Z,102614.59
2023-04-16T15:05:24.549Z,102608.28
2023-04-16T15:07:51.555Z,102609.16
2023-04-16T15:10:18.245Z,102617.06
2023-04-16T15:12:44.787Z,102608.06
2023-04-16T15:15:11.429Z,102609.97
2023-04-16T15:17:38.096Z,102616.47
2023-04-16T15:20:08.231Z,102615.66
2023-04-16T15:22:35.322Z,102611.88
2023-04-16T15:25:02.151Z,102612.69
2023-04-16T15:27:28.684Z,102609.16
2023-04-16T15:29:55.450Z,102614.81
2023-04-16T15:32:22.012Z,102607.47
2023-04-16T15:34:48.589Z,102612.09
2023-04-16T15:37:16.047Z,102607.72
2023-04-16T15:39:42.754Z,102600.38
2023-04-16T15:42:09.327Z,102605.00
2023-04-16T15:44:36.298Z,102609.63
2023-04-16T15:47:02.942Z,102602.50
2023-04-16T15:49:29.606Z,102606.91
2023-04-16T15:51:56.469Z,102607.13
2023-04-16T15:54:23.494Z,102610.66
2023-04-16T15:56:50.404Z,102615.91
2023-04-16T15:59:16.972Z,102618.63
2023-04-16T16:01:43.638Z,102615.91
2023-04-16T16:04:10.394Z,102606.09
2023-04-16T16:06:38.136Z,102613.66
2023-04-16T16:09:05.033Z,102612.56
2023-04-16T16:11:32.634Z,102609.03
2023-04-16T16:14:01.546Z,102609.84
2023-04-16T16:16:28.584Z,102607.94
2023-04-16T16:18:55.727Z,102611.53
2023-04-16T16:21:22.305Z,102603.56
2023-04-16T16:23:48.866Z,102612.56
2023-04-16T16:26:15.414Z,102621.00
2023-04-16T16:28:43.918Z,102622.06
2023-04-16T16:31:12.145Z,102618.28
2023-04-16T16:33:40.268Z,102625.63
2023-04-16T16:36:10.313Z,102627.25
2023-04-16T16:38:37.087Z,102619.09
2023-04-16T16:41:03.619Z,102621.00
2023-04-16T16:43:30.189Z,102615.53
2023-04-16T16:45:56.894Z,102611.19
2023-04-16T16:48:23.444Z,102612.00
2023-04-16T16:50:50.143Z,102617.44
2023-04-16T16:53:16.744Z,102613.66
2023-04-16T16:55:43.393Z,102623.72
2023-04-16T16:58:09.925Z,102633.78
2023-04-16T17:00:37.145Z,102627.50
2023-04-16T17:03:03.898Z,102632.97
2023-04-16T17:05:30.650Z,102632.13
2023-04-16T17:07:57.334Z,102634.84
2023-04-16T17:10:23.892Z,102636.72
2023-04-16T17:12:51.096Z,102634.00
2023-04-16T17:15:20.559Z,102632.97
2023-04-16T17:17:48.244Z,102636.50
2023-04-16T17:20:14.930Z,102635.91
2023-04-16T17:22:41.985Z,102629.63
2023-04-16T17:25:09.179Z,102642.69
2023-04-16T17:27:35.900Z,102638.06
2023-04-16T17:30:05.338Z,102635.56
2023-04-16T17:32:32.671Z,102639.09
2023-04-16T17:35:00.770Z,102641.59
2023-04-16T17:37:27.819Z,102636.16
2023-04-16T17:39:54.378Z,102640.53
2023-04-16T17:42:21.119Z,102629.06
2023-04-16T17:44:47.645Z,102632.59
2023-04-16T17:47:14.317Z,102632.59
2023-04-16T17:49:40.988Z,102625.25
2023-04-16T17:52:07.530Z,102626.34
2023-04-16T17:54:34.039Z,102632.59
2023-04-16T17:57:00.634Z,102638.06
2023-04-16T17:59:27.477Z,102634.50
2023-04-16T18:01:54.994Z,102633.66
2023-04-16T18:04:21.761Z,102635.31
2023-04-16T18:06:48.466Z,102646.22
2023-04-16T18:09:15.698Z,102648.13
2023-04-16T18:11:42.282Z,102654.38
2023-04-16T18:14:10.211Z,102653.78
2023-04-16T18:16:36.865Z,102654.88
2023-04-16T18:19:03.422Z,102661.13
2023-04-16T18:21:30.430Z,102660.06
2023-04-16T18:23:57.469Z,102659.22
2023-04-16T18:26:25.244Z,102660.06
2023-04-16T18:28:52.650Z,102649.16
2023-04-16T18:31:21.315Z,102658.66
2023-04-16T18:33:56.754Z,102671.19
2023-04-16T18:36:26.093Z,102668.69
2023-04-16T18:39:01.578Z,102667.88
2023-04-16T18:41:29.274Z,102675.00
2023-04-16T18:43:56.060Z,102680.44
2023-04-16T18:46:22.654Z,102674.13
2023-04-16T18:48:49.213Z,102683.16
2023-04-16T18:51:16.693Z,102670.84
2023-04-16T18:53:45.480Z,102681.47
2023-04-16T18:56:12.533Z,102682.56
2023-04-16T18:58:39.085Z,102684.22
2023-04-16T19:01:11.012Z,102686.94
2023-04-16T19:03:38.207Z,102687.19
2023-04-16T19:06:05.915Z,102693.69
2023-04-16T19:08:32.731Z,102690.16
2023-04-16T19:10:59.319Z,102694.53
2023-04-16T19:13:25.948Z,102695.00
2023-04-16T19:15:58.171Z,102696.63
2023-04-16T19:18:24.914Z,102690.38
2023-04-16T19:20:51.442Z,102696.41
2023-04-16T19:23:17.996Z,102699.16
2023-04-16T19:25:44.498Z,102692.25
2023-04-16T19:28:11.049Z,102693.09
2023-04-16T19:30:37.526Z,102701.25
2023-04-16T19:33:04.151Z,102699.38
2023-04-16T19:35:30.725Z,102704.59
2023-04-16T19:37:58.082Z,102696.16
2023-04-16T19:40:24.589Z,102701.88
2023-04-16T19:42:51.222Z,102705.63
2023-04-16T19:45:18.383Z,102702.34
2023-04-16T19:47:45.077Z,102696.06
2023-04-16T19:50:11.764Z,102698.78
2023-04-16T19:52:39.122Z,102701.50
2023-04-16T19:55:07.114Z,102697.72
2023-04-16T19:57:33.779Z,102703.16
2023-04-16T20:00:00.413Z,102701.50
2023-04-16T20:02:27.106Z,102706.13
2023-04-16T20:04:53.961Z,102707.16
2023-04-16T20:07:20.606Z,102713.44
2023-04-16T20:09:47.348Z,102709.88
2023-04-16T20:12:14.422Z,102709.88
2023-04-16T20:14:41.881Z,102707.41
2023-04-16T20:17:10.383Z,102708.50
2023-04-16T20:19:40.851Z,102713.94
2023-04-16T20:22:07.366Z,102713.94
2023-04-16T20:24:34.317Z,102710.34
2023-04-16T20:27:01.675Z,102706.81
2023-04-16T20:29:28.317Z,102709.88
2023-04-16T20:31:54.947Z,102710.97
2023-04-16T20:34:21.412Z,102705.28
2023-04-16T20:36:48.118Z,102704.44
2023-04-16T20:39:14.808Z,102706.13
2023-04-16T20:41:44.204Z,102706.34
2023-04-16T20:44:18.335Z,102709.06
2023-04-16T20:46:49.411Z,102703.88
2023-04-16T20:49:17.658Z,102698.44
2023-04-16T20:51:44.414Z,102693.19
2023-04-16T20:54:11.060Z,102701.38
2023-04-16T20:56:37.777Z,102696.13
2023-04-16T20:59:04.434Z,102697.22
2023-04-16T21:01:30.986Z,102689.03
2023-04-16T21:03:57.629Z,102687.16
2023-04-16T21:06:24.342Z,102685.50
2023-04-16T21:08:51.214Z,102688.22
2023-04-16T21:11:17.726Z,102686.78
2023-04-16T21:13:44.264Z,102694.72
2023-04-16T21:16:12.424Z,102692.00
2023-04-16T21:18:39.184Z,102693.06
2023-04-16T21:21:06.004Z,102695.16
2023-04-16T21:23:32.603Z,102686.19
2023-04-16T21:25:59.140Z,102692.44
2023-04-16T21:28:25.765Z,102692.69
2023-04-16T21:30:52.964Z,102685.59
2023-04-16T21:33:19.542Z,102688.91
2023-04-16T21:35:51.655Z,102688.53
2023-04-16T21:38:18.662Z,102691.06
2023-04-16T21:40:50.875Z,102692.09
2023-04-16T21:43:17.853Z,102685.81
2023-04-16T21:45:44.438Z,102686.06
2023-04-16T21:48:11.006Z,102685.00
2023-04-16T21:50:37.972Z,102687.72
2023-04-16T21:53:06.357Z,102686.31
2023-04-16T21:55:34.671Z,102685.47
2023-04-16T21:58:01.974Z,102674.56
2023-04-16T22:00:28.754Z,102675.44
2023-04-16T22:03:00.147Z,102676.47
2023-04-16T22:05:26.785Z,102674.81
2023-04-16T22:07:53.246Z,102683.81
2023-04-16T22:10:19.708Z,102675.66
2023-04-16T22:12:46.577Z,102679.19
2023-04-16T22:15:13.933Z,102674.81
2023-04-16T22:17:40.713Z,102677.78
2023-04-16T22:20:14.545Z,102674.22
2023-04-16T22:22:42.215Z,102667.13
2023-04-16T22:25:09.805Z,102678.00
2023-04-16T22:27:36.682Z,102672.56
2023-04-16T22:30:04.075Z,102674.72
2023-04-16T22:32:31.028Z,102669.28
2023-04-16T22:34:57.743Z,102669.28
2023-04-16T22:37:24.412Z,102670.91
2023-04-16T22:39:50.891Z,102659.44
2023-04-16T22:42:17.425Z,102658.59
2023-04-16T22:44:43.951Z,102659.44
2023-04-16T22:49:36.956Z,102663.22
2023-04-16T22:52:03.671Z,102664.50
2023-04-16T22:54:33.084Z,102662.84
2023-04-16T22:56:59.618Z,102673.75
2023-04-16T22:59:26.337Z,102667.47
2023-04-16T23:01:53.078Z,102675.63
2023-04-16T23:04:19.815Z,102668.56
2023-04-16T23:06:46.437Z,102674.81
2023-04-16T23:09:13.220Z,102670.44
2023-04-16T23:11:40.024Z,102667.72
2023-04-16T23:14:07.599Z,102669.59
2023-04-16T23:16:34.104Z,102669.59
2023-04-16T23:19:00.956Z,102669.84
2023-04-16T23:21:27.506Z,102666.28
2023-04-16T23:23:54.371Z,102670.91
2023-04-16T23:26:20.848Z,102673.63
2023-04-16T23:28:47.331Z,102671.72
2023-04-16T23:31:13.876Z,102678.00
2023-04-16T23:33:40.422Z,102669.25
2023-04-16T23:36:07.417Z,102665.09
2023-04-16T23:38:33.909Z,102668.66
2023-04-16T23:41:00.436Z,102671.97
2023-04-16T23:43:26.982Z,102684.72
2023-04-16T23:45:53.507Z,102678.47
2023-04-16T23:48:20.005Z,102680.34
2023-04-16T23:50:46.566Z,102675.16
2023-04-16T23:53:13.164Z,102680.59
2023-04-16T23:55:39.818Z,102670.75
2023-04-16T23:58:06.347Z,102670.75
